Главная страница
METAR-TAF:

METAR-TAF

Аэропорты :

Latrobe, Пенсильвания, США

широта: 40-17N, долгота: 079-24W, высота над уровнем моря: 361 м

Текущие метеонаблюдения

Эта сводка был подготовлена 20 минут назад, в 01:45 UTC
Штиль
Температура -14°C
Влажность 72%
Давление 1035 hPa
Видимость: 16.1 км
ясное небо

METAR: KLBE 220145Z 00000KT 10SM SKC M14/M18 A3057

Время: 21:05 (02:05 UTC)

Прогноз

Эта сводка был подготовлена 2 часа и 40 минут назад, в 23:25 UTC
Прогноз действительный с 22-го 00 UTC до 22-го 24 UTC
Ветер 6 Узел от западно-северо-западный
Видимость: 10 км
Отдельные облака на высоте 25000 фута
С 22-го 1400 UTC
Ветер 3 Узел от восточно-юго-восточный
Видимость: 10 км
Отдельные облака на высоте 25000 фута
С 22-го 1700 UTC
Ветер 7 Узел от юго-юго-восточный
Видимость: 10 км
Отдельные облака на высоте 25000 фута

TAF: KLBE 212325Z 2200/2224 29006KT P6SM SCT250 FM221400 11003KT P6SM SCT250 FM221700 15007KT P6SM SCT250

Метеонаблюдения и прогнозы для более 4000 аэропортов (сводки METAR и TAF).

Имеющиеся станции представлены на карте желтыми и красными точками.

Чтобы увидеть название станции, наведите на нее мышь.

Затем щелкните, чтобы увидеть метеонаблюдения и метеопрогнозы.

Управление картой: чтобы увеличить масштаб, щелкните зеленые кнопки с черным крестиком; чтобы уменьшить масштаб, щелкните зеленую кнопку с тире; для просмотра соседних карт щелкайте зеленые стрелки.


METAR-TAF: